Time;durP1;ratioP1;P1;durP2;ratioP2;P2;SDS_P1;SDS_P2;PMS_P1;PMS_P2;Temp;Humidity;BMP_temperature;BMP_pressure;BME280_temperature;BME280_humidity;BME280_pressure;Samples;Min_cycle;Max_cycle;Signal;HPM_P1;HPM_P2
2021/03/18 00:01:13;;;;;;;2.08;1.00;;;22.30;44.40;;;;;;5045197;28;20087;-62
2021/03/18 00:03:41;;;;;;;2.05;1.00;;;22.30;44.40;;;;;;5047489;28;20017;-60
2021/03/18 00:06:08;;;;;;;2.00;1.00;;;22.30;44.40;;;;;;5047518;28;20395;-63
2021/03/18 00:08:34;;;;;;;2.55;1.15;;;22.30;44.40;;;;;;5047778;28;20132;-62
2021/03/18 00:11:04;;;;;;;2.05;0.90;;;22.20;44.30;;;;;;5047786;28;20115;-64
2021/03/18 00:13:31;;;;;;;2.83;1.23;;;22.20;44.30;;;;;;5039125;28;20022;-61
2021/03/18 00:15:57;;;;;;;1.98;0.90;;;22.20;44.40;;;;;;5047180;28;20029;-64
2021/03/18 00:18:28;;;;;;;2.28;1.10;;;22.20;44.40;;;;;;5047782;28;20025;-61
2021/03/18 00:20:54;;;;;;;1.70;0.90;;;22.20;44.40;;;;;;5033552;28;20138;-61
2021/03/18 00:23:20;;;;;;;2.17;1.10;;;22.20;44.40;;;;;;5045933;28;20060;-60
2021/03/18 00:25:45;;;;;;;2.28;1.10;;;22.20;44.40;;;;;;5046095;28;20384;-61
2021/03/18 00:28:11;;;;;;;1.05;0.80;;;22.20;44.40;;;;;;5047272;28;20021;-65
2021/03/18 00:30:37;;;;;;;1.58;0.90;;;22.20;44.40;;;;;;5059607;28;20109;-62
2021/03/18 00:33:03;;;;;;;2.28;1.10;;;22.20;44.40;;;;;;5055017;28;20033;-61
2021/03/18 00:35:28;;;;;;;2.33;1.10;;;22.10;44.40;;;;;;5050547;28;20048;-63
2021/03/18 00:37:56;;;;;;;1.17;0.85;;;22.10;44.40;;;;;;5052039;28;20118;-62
2021/03/18 00:40:40;;;;;;;1.90;0.90;;;22.10;44.40;;;;;;5051733;28;20028;-60
2021/03/18 00:43:08;;;;;;;1.90;1.00;;;22.10;44.40;;;;;;5037733;28;20103;-62
2021/03/18 00:45:37;;;;;;;1.60;0.90;;;22.10;44.40;;;;;;5049606;28;20056;-64
2021/03/18 00:48:05;;;;;;;1.88;1.00;;;22.10;44.40;;;;;;5052604;28;20294;-61
2021/03/18 00:50:46;;;;;;;1.20;0.88;;;22.10;44.40;;;;;;5049138;28;20040;-61
2021/03/18 00:53:16;;;;;;;1.50;0.98;;;22.10;44.40;;;;;;5046694;28;20029;-60
2021/03/18 00:55:42;;;;;;;;;;;22.10;44.40;;;;;;5050918;28;20036;-60
2021/03/18 00:58:07;;;;;;;1.85;0.98;;;22.10;44.40;;;;;;5051307;28;19909;-60
2021/03/18 01:00:45;;;;;;;1.70;0.90;;;22.00;44.40;;;;;;5051140;28;20032;-62
2021/03/18 01:03:11;;;;;;;1.60;0.90;;;22.00;44.40;;;;;;5069449;28;20028;-62
2021/03/18 01:05:45;;;;;;;2.22;1.00;;;22.00;44.40;;;;;;5037280;28;20484;-61
2021/03/18 01:08:13;;;;;;;2.00;1.00;;;22.00;44.40;;;;;;5041533;28;20095;-62
2021/03/18 01:10:50;;;;;;;2.15;0.90;;;22.00;44.50;;;;;;5051076;28;20052;-63
2021/03/18 01:13:19;;;;;;;1.58;0.90;;;22.00;44.40;;;;;;5035346;28;20037;-63
2021/03/18 01:15:50;;;;;;;2.00;0.90;;;22.00;44.40;;;;;;5045749;28;20036;-61
2021/03/18 01:18:18;;;;;;;2.63;1.10;;;21.90;44.40;;;;;;5039068;28;20024;-61
2021/03/18 01:20:44;;;;;;;1.70;0.93;;;21.90;44.40;;;;;;5049458;28;20036;-63
2021/03/18 01:23:09;;;;;;;1.40;0.75;;;21.90;44.40;;;;;;5050990;28;20033;-61
2021/03/18 01:25:35;;;;;;;2.35;1.05;;;22.00;44.50;;;;;;5049202;28;20032;-65
2021/03/18 01:28:01;;;;;;;1.67;0.93;;;21.90;44.40;;;;;;5050767;28;20118;-62
2021/03/18 01:30:27;;;;;;;1.58;1.00;;;21.90;44.40;;;;;;5049165;28;20455;-61
2021/03/18 01:32:53;;;;;;;1.58;1.00;;;21.90;44.40;;;;;;5049811;28;20096;-62
2021/03/18 01:35:21;;;;;;;1.60;0.90;;;21.90;44.50;;;;;;5049713;28;20036;-63
2021/03/18 01:37:48;;;;;;;1.77;0.80;;;21.90;44.50;;;;;;5055503;28;20047;-64
2021/03/18 01:40:23;;;;;;;2.05;1.10;;;21.80;44.40;;;;;;5068762;28;20263;-64
2021/03/18 01:42:49;;;;;;;1.52;0.95;;;21.90;44.50;;;;;;5030021;28;20104;-62
2021/03/18 01:45:14;;;;;;;2.03;1.00;;;21.80;44.40;;;;;;5042153;28;20067;-63
2021/03/18 01:47:43;;;;;;;1.70;0.90;;;21.90;44.50;;;;;;5049790;28;20027;-60
2021/03/18 01:50:10;;;;;;;2.25;0.98;;;21.80;44.40;;;;;;5049495;28;20032;-61
2021/03/18 01:52:36;;;;;;;1.40;0.80;;;21.90;44.50;;;;;;5049289;28;20405;-61
2021/03/18 01:55:07;;;;;;;1.33;0.80;;;21.80;44.40;;;;;;5053808;28;20032;-63
2021/03/18 01:57:34;;;;;;;1.30;0.80;;;21.80;44.40;;;;;;5050479;28;20053;-61
2021/03/18 02:00:00;;;;;;;1.52;0.98;;;21.80;44.40;;;;;;5048512;28;20037;-61
2021/03/18 02:02:26;;;;;;;1.70;1.00;;;21.80;44.40;;;;;;5043160;28;20127;-62
2021/03/18 02:04:52;;;;;;;1.50;1.00;;;21.80;44.50;;;;;;5048933;28;20033;-62
2021/03/18 02:07:18;;;;;;;1.77;1.00;;;21.80;44.50;;;;;;5049439;28;20040;-60
2021/03/18 02:09:44;;;;;;;2.53;0.90;;;21.70;44.40;;;;;;5049541;28;20073;-64
2021/03/18 02:12:10;;;;;;;1.52;1.00;;;21.80;44.50;;;;;;5049223;28;20025;-62
2021/03/18 02:14:37;;;;;;;1.42;0.90;;;21.80;44.50;;;;;;5041160;28;20128;-61
2021/03/18 02:17:07;;;;;;;1.10;0.80;;;21.80;44.50;;;;;;5047552;28;20036;-65
2021/03/18 02:19:54;;;;;;;1.63;0.90;;;21.70;44.50;;;;;;5049608;28;20025;-63
2021/03/18 02:23:06;;;;;;;1.45;0.90;;;21.70;44.50;;;;;;5048908;28;20078;-60
2021/03/18 02:25:46;;;;;;;1.13;0.75;;;21.70;44.50;;;;;;5048610;28;20060;-61
2021/03/18 02:28:31;;;;;;;1.42;0.77;;;21.70;44.50;;;;;;5044612;28;20108;-61
2021/03/18 02:30:56;;;;;;;1.42;0.88;;;21.70;44.50;;;;;;5040940;28;20436;-63
2021/03/18 02:33:40;;;;;;;1.85;1.00;;;21.70;44.50;;;;;;5049233;28;20029;-61
2021/03/18 02:36:12;;;;;;;1.52;0.90;;;21.70;44.50;;;;;;5043568;28;20438;-62
2021/03/18 02:38:43;;;;;;;1.33;0.90;;;21.70;44.50;;;;;;5048233;28;20029;-61
2021/03/18 02:41:18;;;;;;;1.15;0.73;;;21.70;44.50;;;;;;5048255;28;20033;-62
2021/03/18 02:44:01;;;;;;;0.93;0.70;;;21.70;44.50;;;;;;5047688;28;20507;-65
2021/03/18 02:46:27;;;;;;;1.77;0.80;;;21.60;44.50;;;;;;5047689;28;20081;-61
2021/03/18 02:48:59;;;;;;;0.80;0.70;;;21.60;44.50;;;;;;5049401;28;20029;-60
2021/03/18 02:51:27;;;;;;;1.38;0.85;;;21.60;44.50;;;;;;5047901;28;20032;-64
2021/03/18 02:53:53;;;;;;;1.15;0.80;;;21.60;44.50;;;;;;5048882;28;20127;-61
2021/03/18 02:56:21;;;;;;;1.88;0.80;;;21.60;44.50;;;;;;5045482;28;20120;-61
2021/03/18 02:58:50;;;;;;;1.55;0.80;;;21.60;44.50;;;;;;5047435;28;20024;-62
2021/03/18 03:01:17;;;;;;;;;;;21.60;44.50;;;;;;5046937;28;20075;-61
2021/03/18 03:03:44;;;;;;;1.52;0.90;;;21.60;44.50;;;;;;5058518;28;19991;-61
2021/03/18 03:06:12;;;;;;;1.90;0.82;;;21.60;44.50;;;;;;5045879;28;20033;-64
2021/03/18 03:08:39;;;;;;;1.10;0.70;;;21.60;44.50;;;;;;5049804;28;20392;-62
2021/03/18 03:11:05;;;;;;;1.00;0.70;;;21.60;44.50;;;;;;5047487;28;20025;-60
2021/03/18 03:13:34;;;;;;;1.63;0.80;;;21.60;44.60;;;;;;5043906;28;20044;-61
2021/03/18 03:16:03;;;;;;;1.10;0.80;;;21.60;44.60;;;;;;5047044;28;20479;-62
2021/03/18 03:18:29;;;;;;;1.65;0.98;;;21.60;44.60;;;;;;5033826;28;20061;-61
2021/03/18 03:20:57;;;;;;;1.80;0.90;;;21.50;44.50;;;;;;5033243;28;20329;-62
2021/03/18 03:23:26;;;;;;;1.15;0.77;;;21.50;45.10;;;;;;5043539;28;20503;-60
2021/03/18 03:25:53;;;;;;;1.58;0.90;;;21.50;44.50;;;;;;5047881;28;20033;-62
2021/03/18 03:28:20;;;;;;;1.45;0.80;;;21.50;44.60;;;;;;5048428;28;20040;-61
2021/03/18 03:30:46;;;;;;;1.10;0.80;;;21.50;44.60;;;;;;5046741;28;20159;-63
2021/03/18 03:33:11;;;;;;;1.42;0.85;;;21.50;44.60;;;;;;5048282;28;20099;-61
2021/03/18 03:35:38;;;;;;;0.95;0.63;;;21.50;44.60;;;;;;5046125;28;20052;-61
2021/03/18 03:38:04;;;;;;;1.02;0.80;;;21.50;44.60;;;;;;5048161;28;20029;-61
2021/03/18 03:40:30;;;;;;;0.98;0.70;;;21.50;44.60;;;;;;5048443;28;20028;-62
2021/03/18 03:42:56;;;;;;;1.52;0.77;;;21.50;44.60;;;;;;5047400;28;20037;-62
2021/03/18 03:45:22;;;;;;;1.02;0.80;;;21.50;44.60;;;;;;5041187;28;20104;-63
2021/03/18 03:47:48;;;;;;;1.23;0.80;;;21.40;44.50;;;;;;5041848;28;20104;-61
2021/03/18 03:50:20;;;;;;;1.30;0.70;;;21.50;44.60;;;;;;5063639;28;20041;-61
2021/03/18 03:53:09;;;;;;;0.95;0.70;;;21.40;44.60;;;;;;5045629;28;20368;-62
2021/03/18 03:55:53;;;;;;;1.33;0.80;;;21.40;44.60;;;;;;5047887;28;20025;-61
2021/03/18 03:58:52;;;;;;;1.02;0.77;;;21.40;44.60;;;;;;5047231;28;20047;-60
2021/03/18 04:01:29;;;;;;;1.13;0.70;;;21.40;44.60;;;;;;5046004;28;20044;-61
2021/03/18 04:04:02;;;;;;;1.35;0.80;;;21.40;44.60;;;;;;5045328;28;20036;-60
2021/03/18 04:06:29;;;;;;;1.08;0.70;;;21.40;44.60;;;;;;5046479;28;20021;-62
2021/03/18 04:08:58;;;;;;;1.25;0.80;;;21.40;44.60;;;;;;5047800;28;20789;-62
2021/03/18 04:11:24;;;;;;;1.38;0.90;;;21.40;44.60;;;;;;5047412;28;20033;-63
2021/03/18 04:13:51;;;;;;;1.60;0.90;;;21.40;44.60;;;;;;5046338;28;20029;-60
2021/03/18 04:16:16;;;;;;;1.08;0.70;;;21.40;44.60;;;;;;5046884;28;20084;-60
2021/03/18 04:18:44;;;;;;;1.95;1.00;;;21.40;45.20;;;;;;5034485;28;20102;-60
2021/03/18 04:21:12;;;;;;;1.05;0.80;;;21.40;44.60;;;;;;5047163;28;20167;-60
2021/03/18 04:23:39;;;;;;;1.38;0.70;;;21.40;44.60;;;;;;5046499;28;20024;-61
2021/03/18 04:26:06;;;;;;;0.93;0.63;;;21.40;44.60;;;;;;5043175;28;20039;-61
2021/03/18 04:28:34;;;;;;;1.08;0.70;;;21.40;44.60;;;;;;5037440;28;20031;-62
2021/03/18 04:31:00;;;;;;;1.25;0.80;;;21.40;44.60;;;;;;5045698;28;20059;-63
2021/03/18 04:33:28;;;;;;;0.88;0.63;;;21.40;44.60;;;;;;5047679;28;20029;-62
2021/03/18 04:35:56;;;;;;;0.88;0.60;;;21.40;44.60;;;;;;5046703;28;20037;-62
2021/03/18 04:38:25;;;;;;;1.33;0.70;;;21.40;44.60;;;;;;5042160;28;20115;-61
2021/03/18 04:40:51;;;;;;;1.37;0.90;;;21.30;44.60;;;;;;5037492;28;20108;-65
2021/03/18 04:43:17;;;;;;;1.15;0.70;;;21.40;44.60;;;;;;5036819;28;20418;-62
2021/03/18 04:45:43;;;;;;;0.88;0.70;;;21.40;44.60;;;;;;5040965;28;20500;-61
2021/03/18 04:48:10;;;;;;;1.15;0.80;;;21.40;44.60;;;;;;5029782;28;20036;-62
2021/03/18 04:50:36;;;;;;;1.42;0.70;;;21.30;44.60;;;;;;5045632;28;20107;-62
2021/03/18 04:53:02;;;;;;;0.77;0.70;;;21.30;44.60;;;;;;5044819;28;20033;-63
2021/03/18 04:55:28;;;;;;;1.15;0.68;;;21.30;44.60;;;;;;5046691;28;20037;-63
2021/03/18 04:58:04;;;;;;;1.83;0.80;;;21.30;44.60;;;;;;5046112;28;20055;-60
2021/03/18 05:00:31;;;;;;;1.30;0.73;;;21.30;44.60;;;;;;5043536;28;20044;-64
2021/03/18 05:03:01;;;;;;;1.02;0.70;;;21.30;44.60;;;;;;5040196;28;20057;-61
2021/03/18 05:05:28;;;;;;;1.27;0.90;;;21.30;44.60;;;;;;5044889;28;20029;-60
2021/03/18 05:07:55;;;;;;;1.23;0.70;;;21.30;44.60;;;;;;5047264;28;20106;-60
2021/03/18 05:10:23;;;;;;;0.80;0.57;;;21.30;44.60;;;;;;5047504;28;20116;-64
2021/03/18 05:12:51;;;;;;;1.15;0.90;;;21.30;44.60;;;;;;5045871;28;20116;-61
2021/03/18 05:15:17;;;;;;;0.95;0.70;;;21.30;44.60;;;;;;5057791;28;20123;-61
2021/03/18 05:17:44;;;;;;;0.80;0.60;;;21.30;44.60;;;;;;5048451;28;20452;-63
2021/03/18 05:20:12;;;;;;;1.08;0.80;;;21.30;44.60;;;;;;5053989;28;20028;-62
2021/03/18 05:22:38;;;;;;;0.70;0.60;;;21.30;44.60;;;;;;5036082;28;20032;-60
2021/03/18 05:25:05;;;;;;;0.95;0.70;;;21.30;44.60;;;;;;5042580;28;20104;-64
2021/03/18 05:27:31;;;;;;;1.20;0.70;;;21.30;44.60;;;;;;5050842;28;20049;-63
2021/03/18 05:29:56;;;;;;;0.70;0.60;;;21.30;44.60;;;;;;5049991;28;20122;-63
2021/03/18 05:32:22;;;;;;;1.05;0.50;;;21.30;44.60;;;;;;5047076;28;20048;-61
2021/03/18 05:34:48;;;;;;;0.98;0.65;;;21.30;44.60;;;;;;5049424;28;20098;-63
2021/03/18 05:37:14;;;;;;;0.88;0.70;;;21.30;44.70;;;;;;5050684;28;20411;-63
2021/03/18 05:39:39;;;;;;;0.70;0.60;;;21.30;44.70;;;;;;5050908;28;20040;-62
2021/03/18 05:42:05;;;;;;;0.95;0.70;;;21.30;44.70;;;;;;5048850;28;20044;-63
2021/03/18 05:44:31;;;;;;;1.48;0.70;;;21.30;44.70;;;;;;5047704;28;20029;-62
2021/03/18 05:47:00;;;;;;;0.90;0.70;;;21.30;44.70;;;;;;5048991;28;20032;-61
2021/03/18 05:49:28;;;;;;;0.85;0.60;;;21.30;44.70;;;;;;5050540;28;20031;-62
2021/03/18 05:51:56;;;;;;;1.08;0.70;;;21.30;44.70;;;;;;5047617;28;20029;-61
2021/03/18 05:54:23;;;;;;;0.80;0.70;;;21.30;44.70;;;;;;5048116;28;20025;-62
2021/03/18 05:56:49;;;;;;;0.73;0.60;;;21.30;44.70;;;;;;5049038;28;20043;-60
2021/03/18 05:59:17;;;;;;;1.10;0.65;;;21.30;44.70;;;;;;5049990;28;20033;-63
2021/03/18 06:01:43;;;;;;;1.10;0.63;;;21.30;44.80;;;;;;5035676;28;20045;-62
2021/03/18 06:04:09;;;;;;;1.08;0.70;;;21.20;44.70;;;;;;5033717;28;20047;-62
2021/03/18 06:06:36;;;;;;;1.42;0.80;;;21.20;44.70;;;;;;5048510;28;20094;-62
2021/03/18 06:09:05;;;;;;;1.08;0.77;;;21.20;44.70;;;;;;5049803;28;20497;-61
2021/03/18 06:11:31;;;;;;;1.20;0.80;;;21.20;44.80;;;;;;5049625;28;20017;-64
2021/03/18 06:13:56;;;;;;;1.15;0.80;;;21.20;44.80;;;;;;5043617;28;20838;-61
2021/03/18 06:16:23;;;;;;;1.05;0.70;;;21.20;44.80;;;;;;5044773;28;20029;-61
2021/03/18 06:18:49;;;;;;;1.08;0.63;;;21.20;44.80;;;;;;5048362;28;20129;-61
2021/03/18 06:21:14;;;;;;;1.58;0.63;;;21.20;44.80;;;;;;5045271;28;20462;-62
2021/03/18 06:23:40;;;;;;;1.80;0.80;;;21.20;44.80;;;;;;5058506;28;20181;-62
2021/03/18 06:26:06;;;;;;;1.20;0.70;;;21.20;44.80;;;;;;5047226;28;20118;-62
2021/03/18 06:28:35;;;;;;;1.20;0.70;;;21.20;44.80;;;;;;5049237;28;20025;-62
2021/03/18 06:31:14;;;;;;;1.30;0.75;;;21.20;44.90;;;;;;5045400;28;20059;-60
2021/03/18 06:33:40;;;;;;;;;;;21.20;44.90;;;;;;5047536;28;20341;-61
2021/03/18 06:36:19;;;;;;;1.08;0.70;;;21.20;44.90;;;;;;5043896;28;19916;-63
2021/03/18 06:39:02;;;;;;;2.25;1.05;;;21.20;44.90;;;;;;5047901;28;20082;-60
2021/03/18 06:41:32;;;;;;;1.77;1.05;;;21.20;45.50;;;;;;5048236;28;20086;-61
2021/03/18 06:43:58;;;;;;;1.17;0.80;;;21.20;44.90;;;;;;5064403;28;20147;-61
2021/03/18 06:46:24;;;;;;;1.60;0.80;;;21.20;45.00;;;;;;5043943;28;20108;-63
2021/03/18 06:48:55;;;;;;;2.33;1.08;;;21.20;45.90;;;;;;5045080;28;20029;-62
2021/03/18 06:51:27;;;;;;;3.15;1.27;;;21.30;45.80;;;;;;5049812;28;20044;-62
2021/03/18 06:53:54;;;;;;;1.83;1.02;;;21.40;45.80;;;;;;5044206;28;20476;-60
2021/03/18 06:56:23;;;;;;;2.33;1.10;;;21.60;45.60;;;;;;5044330;28;20029;-61
2021/03/18 06:58:49;;;;;;;2.17;1.03;;;21.60;44.90;;;;;;5041958;28;20032;-60
2021/03/18 07:01:20;;;;;;;1.23;0.85;;;21.60;44.90;;;;;;5042758;28;20302;-62
2021/03/18 07:03:46;;;;;;;1.52;0.80;;;21.60;44.90;;;;;;5042526;28;20025;-62
2021/03/18 07:06:26;;;;;;;1.45;0.70;;;21.70;45.00;;;;;;5041417;28;22582;-62
2021/03/18 07:09:11;;;;;;;1.83;0.95;;;21.70;45.00;;;;;;5043548;28;20033;-61
2021/03/18 07:11:40;;;;;;;2.20;0.90;;;21.70;44.90;;;;;;5048149;28;20112;-59
2021/03/18 07:14:06;;;;;;;2.28;0.90;;;21.70;44.90;;;;;;5047867;28;20421;-61
2021/03/18 07:16:44;;;;;;;1.35;1.10;;;21.70;44.80;;;;;;5046614;28;21795;-62
2021/03/18 07:19:20;;;;;;;1.60;0.80;;;21.70;44.90;;;;;;5047374;28;20083;-61
2021/03/18 07:21:46;;;;;;;1.90;0.90;;;21.70;44.80;;;;;;5047043;28;20025;-63
2021/03/18 07:24:26;;;;;;;1.33;0.85;;;21.80;44.80;;;;;;5047389;28;20469;-62
2021/03/18 07:26:52;;;;;;;1.73;0.88;;;21.80;44.80;;;;;;5047130;28;20029;-61
2021/03/18 07:29:26;;;;;;;1.80;1.20;;;21.80;45.30;;;;;;5047107;28;20037;-63
2021/03/18 07:31:53;;;;;;;1.48;0.93;;;21.90;44.80;;;;;;5045299;28;20037;-59
2021/03/18 07:34:19;;;;;;;2.90;0.90;;;21.90;44.80;;;;;;5047948;28;20037;-59
2021/03/18 07:36:46;;;;;;;1.45;0.80;;;21.90;44.70;;;;;;5039897;28;20028;-60
2021/03/18 07:39:13;;;;;;;1.98;1.00;;;21.90;44.70;;;;;;5030257;28;20029;-61
2021/03/18 07:41:39;;;;;;;1.55;0.80;;;22.00;44.70;;;;;;5041042;28;20033;-60
2021/03/18 07:44:07;;;;;;;1.60;0.85;;;22.00;44.70;;;;;;5044822;28;20029;-67
2021/03/18 07:46:37;;;;;;;1.75;0.98;;;22.00;44.70;;;;;;5046517;28;20025;-60
2021/03/18 07:49:14;;;;;;;1.55;0.80;;;22.00;44.80;;;;;;5046728;28;20033;-61
2021/03/18 07:51:43;;;;;;;1.75;0.90;;;22.10;44.70;;;;;;5044895;28;20020;-61
2021/03/18 07:54:12;;;;;;;1.67;0.98;;;22.00;44.70;;;;;;5047023;28;20301;-65
2021/03/18 07:56:37;;;;;;;1.67;0.90;;;22.10;44.70;;;;;;5045598;28;20029;-59
2021/03/18 07:59:07;;;;;;;1.63;0.98;;;22.10;44.80;;;;;;5047602;28;20036;-56
2021/03/18 08:01:35;;;;;;;1.13;0.80;;;22.10;44.70;;;;;;5033404;28;20634;-62
2021/03/18 08:04:09;;;;;;;2.25;1.00;;;22.10;44.60;;;;;;5046617;28;20029;-62
2021/03/18 08:06:40;;;;;;;1.35;0.80;;;22.10;44.70;;;;;;5045162;28;20037;-61
2021/03/18 08:09:09;;;;;;;1.80;0.90;;;22.20;44.60;;;;;;5047956;28;20029;-60
2021/03/18 08:11:36;;;;;;;1.80;0.98;;;22.20;44.60;;;;;;5047112;28;20033;-61
2021/03/18 08:14:15;;;;;;;1.73;0.90;;;22.20;44.50;;;;;;5045475;28;20036;-60
2021/03/18 08:16:41;;;;;;;1.52;0.70;;;22.30;44.50;;;;;;5042700;28;20048;-62
2021/03/18 08:19:15;;;;;;;1.80;0.80;;;22.20;44.50;;;;;;5047112;28;20048;-61
2021/03/18 08:21:52;;;;;;;1.40;1.00;;;22.30;44.50;;;;;;5046687;28;20345;-61
2021/03/18 08:24:20;;;;;;;1.42;0.63;;;22.30;44.50;;;;;;5046304;28;20025;-61
2021/03/18 08:26:49;;;;;;;1.58;0.90;;;22.30;44.50;;;;;;5046725;28;20033;-60
2021/03/18 08:29:42;;;;;;;2.08;0.90;;;22.30;44.50;;;;;;5046410;28;20025;-61
2021/03/18 08:32:10;;;;;;;1.98;0.90;;;22.40;44.50;;;;;;5043962;28;20041;-61
2021/03/18 08:34:53;;;;;;;1.70;0.80;;;22.40;44.50;;;;;;5043104;28;20375;-65
2021/03/18 08:37:43;;;;;;;2.25;0.90;;;22.40;44.60;;;;;;5044550;28;20040;-64
2021/03/18 08:40:20;;;;;;;1.92;1.13;;;22.40;44.50;;;;;;5047391;28;20036;-60
2021/03/18 08:42:51;;;;;;;2.25;0.98;;;22.40;44.50;;;;;;5047284;28;20048;-60
2021/03/18 08:45:20;;;;;;;1.77;0.82;;;22.50;44.50;;;;;;5045747;28;20036;-62
2021/03/18 08:47:52;;;;;;;1.60;0.90;;;22.40;44.50;;;;;;5039708;28;20535;-63
2021/03/18 08:50:23;;;;;;;1.77;1.00;;;22.50;44.40;;;;;;5044647;28;20029;-62
2021/03/18 08:52:51;;;;;;;1.27;0.80;;;22.50;44.40;;;;;;5049461;28;20025;-60
2021/03/18 08:55:39;;;;;;;1.83;0.90;;;22.50;44.90;;;;;;5049359;28;20032;-64
2021/03/18 08:58:06;;;;;;;1.98;0.90;;;22.50;44.40;;;;;;5048632;28;20025;-59
2021/03/18 09:00:33;;;;;;;2.03;1.00;;;22.60;44.40;;;;;;5067296;28;20126;-63
2021/03/18 09:02:59;;;;;;;1.90;0.90;;;22.60;44.40;;;;;;5035382;28;20119;-64
2021/03/18 09:05:25;;;;;;;1.95;1.00;;;22.60;44.30;;;;;;5047689;28;20428;-58
2021/03/18 09:07:53;;;;;;;2.15;1.17;;;22.60;44.30;;;;;;5048847;28;20067;-64
2021/03/18 09:10:30;;;;;;;1.20;0.90;;;22.60;44.30;;;;;;5050301;28;20114;-62
2021/03/18 09:13:14;;;;;;;2.03;0.93;;;22.60;44.30;;;;;;5049558;28;20658;-60
2021/03/18 09:15:42;;;;;;;1.50;0.80;;;22.60;44.30;;;;;;5048533;28;20124;-61
2021/03/18 09:18:18;;;;;;;1.65;0.80;;;22.70;44.30;;;;;;5058025;28;20029;-60
2021/03/18 09:20:47;;;;;;;1.60;0.90;;;22.70;44.30;;;;;;5032282;28;20044;-64
2021/03/18 09:23:14;;;;;;;;;;;22.70;44.20;;;;;;5034601;28;20052;-62
2021/03/18 09:25:41;;;;;;;1.40;0.88;;;22.70;44.20;;;;;;5047287;28;20528;-60
2021/03/18 09:28:09;;;;;;;1.45;0.90;;;22.70;44.20;;;;;;5045941;28;20060;-66
2021/03/18 09:30:46;;;;;;;1.20;0.85;;;22.70;44.20;;;;;;5047640;28;20116;-61
2021/03/18 09:33:16;;;;;;;1.27;0.80;;;22.70;44.30;;;;;;5049396;28;20656;-66
2021/03/18 09:35:42;;;;;;;2.33;0.80;;;22.70;44.30;;;;;;5067641;28;20061;-68
2021/03/18 09:38:19;;;;;;;1.27;0.80;;;22.70;44.30;;;;;;5046777;28;20060;-61
2021/03/18 09:40:45;;;;;;;1.55;0.80;;;22.80;44.40;;;;;;5049097;28;20534;-60
2021/03/18 09:43:12;;;;;;;1.20;0.82;;;22.80;44.30;;;;;;5063686;28;20033;-62
2021/03/18 09:45:38;;;;;;;1.38;0.88;;;22.80;44.20;;;;;;5048069;28;20102;-59
2021/03/18 09:48:04;;;;;;;1.40;0.90;;;22.80;44.10;;;;;;5047573;28;20059;-58
2021/03/18 09:50:32;;;;;;;1.75;1.10;;;22.90;44.20;;;;;;5050110;28;20467;-64
2021/03/18 09:53:11;;;;;;;1.35;0.77;;;22.90;44.20;;;;;;5047469;28;20051;-64
2021/03/18 09:55:37;;;;;;;;;;;22.90;44.20;;;;;;5049992;28;20029;-61
2021/03/18 09:58:11;;;;;;;2.65;0.75;;;22.90;44.30;;;;;;5048449;28;19923;-61
2021/03/18 10:00:37;;;;;;;1.05;0.70;;;22.90;44.30;;;;;;5043869;28;20048;-63
2021/03/18 10:03:04;;;;;;;1.25;0.80;;;22.90;44.30;;;;;;5038499;28;20147;-58
2021/03/18 10:05:29;;;;;;;1.60;0.90;;;22.90;44.20;;;;;;5042742;28;20037;-60
2021/03/18 10:07:56;;;;;;;1.85;0.88;;;22.90;44.20;;;;;;5043068;28;20518;-60
2021/03/18 10:10:22;;;;;;;1.60;0.88;;;22.90;44.10;;;;;;5045372;28;20478;-60
2021/03/18 10:12:54;;;;;;;1.45;0.93;;;23.00;44.10;;;;;;5047359;28;20053;-61
2021/03/18 10:15:20;;;;;;;1.40;0.80;;;23.00;44.10;;;;;;5044918;28;20094;-64
2021/03/18 10:17:48;;;;;;;1.35;0.80;;;23.00;44.00;;;;;;5045392;28;20043;-61
2021/03/18 10:20:16;;;;;;;1.40;0.80;;;23.00;44.00;;;;;;5043176;28;20743;-60
2021/03/18 10:22:49;;;;;;;1.70;0.80;;;23.00;44.00;;;;;;5051188;28;20020;-55
2021/03/18 10:25:23;;;;;;;1.33;0.80;;;23.00;44.00;;;;;;5060293;28;20352;-63
2021/03/18 10:27:52;;;;;;;1.67;0.90;;;23.10;44.00;;;;;;5046451;28;20032;-61
2021/03/18 10:30:22;;;;;;;1.63;0.90;;;23.10;44.00;;;;;;5046462;28;20337;-61
2021/03/18 10:33:08;;;;;;;1.20;0.70;;;23.00;44.00;;;;;;5036412;28;20029;-61
2021/03/18 10:35:38;;;;;;;1.73;0.98;;;23.10;44.10;;;;;;5046835;28;20017;-56
2021/03/18 10:38:05;;;;;;;1.67;1.00;;;23.10;44.00;;;;;;5044500;28;20033;-60
2021/03/18 10:40:39;;;;;;;1.30;0.77;;;23.10;44.00;;;;;;5048274;28;20095;-59
2021/03/18 10:43:27;;;;;;;1.20;0.80;;;23.10;44.00;;;;;;5050181;28;20138;-61
2021/03/18 10:45:55;;;;;;;1.30;0.98;;;23.10;44.00;;;;;;5054975;28;20170;-63
2021/03/18 10:48:23;;;;;;;1.90;0.77;;;23.10;43.90;;;;;;5051533;28;20052;-61
2021/03/18 10:50:50;;;;;;;1.63;0.90;;;23.10;43.90;;;;;;5047521;28;20090;-62
2021/03/18 10:53:15;;;;;;;1.60;1.02;;;23.20;44.00;;;;;;5048300;28;20104;-57
2021/03/18 10:55:47;;;;;;;2.03;1.02;;;23.20;44.00;;;;;;5037761;28;20143;-62
2021/03/18 10:58:20;;;;;;;2.45;1.00;;;23.20;44.00;;;;;;5047876;28;20024;-62
2021/03/18 11:00:47;;;;;;;1.48;0.90;;;23.20;44.00;;;;;;5051551;28;20086;-54
2021/03/18 11:03:13;;;;;;;1.42;1.00;;;23.20;44.10;;;;;;5043867;28;20422;-61
2021/03/18 11:05:43;;;;;;;1.52;0.80;;;23.20;44.10;;;;;;5046411;28;20069;-60
2021/03/18 11:08:09;;;;;;;1.65;0.98;;;23.20;44.00;;;;;;5061465;28;20029;-63
2021/03/18 11:10:42;;;;;;;1.42;0.98;;;23.20;43.90;;;;;;5047472;28;20124;-59
2021/03/18 11:13:12;;;;;;;1.48;1.00;;;23.30;44.00;;;;;;5046712;28;20025;-58
2021/03/18 11:15:53;;;;;;;1.85;0.90;;;23.30;44.00;;;;;;5046454;28;20020;-60
2021/03/18 11:18:26;;;;;;;1.65;1.00;;;23.20;44.00;;;;;;5045483;28;20024;-57
2021/03/18 11:20:52;;;;;;;1.42;0.80;;;23.30;44.00;;;;;;5044198;28;20039;-61
2021/03/18 11:23:28;;;;;;;2.05;0.90;;;23.30;43.90;;;;;;5043808;28;20416;-62
2021/03/18 11:25:59;;;;;;;1.80;0.90;;;23.30;44.00;;;;;;5046666;28;20029;-53
2021/03/18 11:28:26;;;;;;;1.30;0.80;;;23.30;44.00;;;;;;5047158;28;20037;-54
2021/03/18 11:30:55;;;;;;;1.30;0.90;;;23.30;44.00;;;;;;5046866;28;20713;-62
2021/03/18 11:33:26;;;;;;;2.65;0.90;;;23.30;44.00;;;;;;5047033;28;20044;-62
2021/03/18 11:35:52;;;;;;;1.48;0.90;;;23.30;44.00;;;;;;5043837;28;20476;-61
2021/03/18 11:38:18;;;;;;;1.65;0.95;;;23.30;44.10;;;;;;5046348;28;20036;-60
2021/03/18 11:40:46;;;;;;;1.63;1.15;;;23.30;43.00;;;;;;5042322;28;20755;-60
2021/03/18 11:43:13;;;;;;;1.90;1.30;;;23.30;40.90;;;;;;5046025;28;20929;-60
2021/03/18 11:45:39;;;;;;;2.40;1.40;;;23.20;40.60;;;;;;5045444;28;20107;-56
2021/03/18 11:48:09;;;;;;;2.17;1.42;;;23.10;38.40;;;;;;5045343;28;20025;-57
2021/03/18 11:50:36;;;;;;;1.80;1.30;;;23.10;39.80;;;;;;5046057;28;20097;-60
2021/03/18 11:53:03;;;;;;;3.55;1.60;;;23.10;38.80;;;;;;5046039;28;20094;-61
2021/03/18 11:55:29;;;;;;;2.17;1.42;;;23.00;36.90;;;;;;5046868;28;20520;-59
2021/03/18 11:57:57;;;;;;;2.10;1.40;;;23.00;38.00;;;;;;5047615;28;20113;-64
2021/03/18 12:00:29;;;;;;;2.22;1.40;;;23.00;37.10;;;;;;5045824;28;20871;-56
2021/03/18 12:02:56;;;;;;;2.05;1.20;;;22.90;39.10;;;;;;5046411;28;20029;-58
2021/03/18 12:05:22;;;;;;;2.00;1.15;;;22.90;39.50;;;;;;5043879;28;20155;-64
2021/03/18 12:07:48;;;;;;;1.65;1.00;;;23.00;39.40;;;;;;5046428;28;20082;-62
2021/03/18 12:10:14;;;;;;;1.73;1.10;;;23.00;39.00;;;;;;5044877;28;20440;-69
2021/03/18 12:12:40;;;;;;;1.85;1.20;;;23.00;39.60;;;;;;5047652;28;20029;-70
2021/03/18 12:15:07;;;;;;;1.85;1.20;;;22.90;37.70;;;;;;5045072;28;20053;-71
2021/03/18 12:17:33;;;;;;;1.20;1.00;;;22.90;37.10;;;;;;5043530;28;20175;-68
2021/03/18 12:20:00;;;;;;;2.20;1.15;;;22.80;36.40;;;;;;5046950;28;20089;-69
2021/03/18 12:22:26;;;;;;;1.80;1.13;;;22.80;34.50;;;;;;5062521;28;20137;-71
2021/03/18 12:24:52;;;;;;;2.00;1.08;;;22.70;36.10;;;;;;5048470;28;20481;-70
2021/03/18 12:27:17;;;;;;;1.83;1.10;;;22.70;35.90;;;;;;5065640;28;20040;-70
2021/03/18 12:29:43;;;;;;;2.20;1.30;;;22.70;37.00;;;;;;5051335;28;20389;-69
2021/03/18 12:32:09;;;;;;;3.25;1.40;;;22.80;35.60;;;;;;5047087;28;20490;-72
2021/03/18 12:34:35;;;;;;;1.52;0.93;;;22.80;36.00;;;;;;5048103;28;20467;-66
2021/03/18 12:37:00;;;;;;;1.88;1.00;;;22.80;37.80;;;;;;5049702;28;20029;-68
2021/03/18 12:39:26;;;;;;;1.88;1.10;;;22.80;39.40;;;;;;5050662;28;20464;-72
2021/03/18 12:41:51;;;;;;;1.42;1.00;;;22.90;40.20;;;;;;5053035;28;20106;-70
2021/03/18 12:44:17;;;;;;;1.65;0.90;;;22.90;40.60;;;;;;5049943;28;20025;-72
2021/03/18 12:46:43;;;;;;;1.90;1.10;;;23.00;40.90;;;;;;5047188;28;20061;-70
2021/03/18 12:49:09;;;;;;;1.05;0.80;;;23.00;41.10;;;;;;5049917;28;20356;-70
2021/03/18 12:51:36;;;;;;;1.75;1.00;;;23.00;41.20;;;;;;5045194;28;20483;-69
2021/03/18 12:54:02;;;;;;;1.30;0.90;;;23.10;41.50;;;;;;5043153;28;20128;-65
2021/03/18 12:56:27;;;;;;;1.30;0.90;;;23.10;41.50;;;;;;5049265;28;20106;-67
2021/03/18 12:58:53;;;;;;;1.13;0.80;;;23.10;41.50;;;;;;5050550;28;20021;-68